createdAt,value
2017-10-13T00:00:18.606Z,10.20
2017-10-13T00:03:20.686Z,6.97
2017-10-13T00:06:22.669Z,11.53
2017-10-13T00:09:24.657Z,11.13
2017-10-13T00:12:26.653Z,9.87
2017-10-13T00:15:29.351Z,5.03
2017-10-13T00:18:31.290Z,16.47
2017-10-13T00:21:33.237Z,12.00
2017-10-13T00:24:35.270Z,12.80
2017-10-13T00:27:38.090Z,8.40
2017-10-13T00:30:40.018Z,5.77
2017-10-13T00:33:41.985Z,16.00
2017-10-13T00:36:44.028Z,11.07
2017-10-13T00:39:46.843Z,6.53
2017-10-13T00:42:48.817Z,5.33
2017-10-13T00:45:50.786Z,8.03
2017-10-13T00:48:53.591Z,6.03
2017-10-13T00:51:55.658Z,7.03
2017-10-13T00:54:57.626Z,5.50
2017-10-13T00:57:59.626Z,6.77
2017-10-13T01:01:01.597Z,7.67
2017-10-13T01:04:03.607Z,7.37
2017-10-13T01:07:06.430Z,4.27
2017-10-13T01:10:08.381Z,4.63
2017-10-13T01:13:10.359Z,4.50
2017-10-13T01:16:12.301Z,6.10
2017-10-13T01:19:14.252Z,5.00
2017-10-13T01:22:16.223Z,3.93
2017-10-13T01:25:18.958Z,7.17
2017-10-13T01:28:21.645Z,12.07
2017-10-13T01:31:23.602Z,14.43
2017-10-13T01:34:26.311Z,13.07
2017-10-13T01:37:29.189Z,37.93
2017-10-13T01:40:31.142Z,34.53
2017-10-13T01:43:33.106Z,19.57
2017-10-13T01:46:35.169Z,25.70
2017-10-13T01:49:37.951Z,25.40
2017-10-13T01:52:39.973Z,8.97
2017-10-13T01:55:41.958Z,4.80
2017-10-13T01:58:43.910Z,9.10
2017-10-13T02:01:46.730Z,23.43
2017-10-13T02:04:48.677Z,12.13
2017-10-13T02:07:50.683Z,5.93
2017-10-13T02:10:53.425Z,4.10
2017-10-13T02:13:55.562Z,4.30
2017-10-13T02:16:58.271Z,3.33
2017-10-13T02:20:01.073Z,66.70
2017-10-13T02:23:03.790Z,65.40
2017-10-13T02:26:05.773Z,45.77
2017-10-13T02:29:07.831Z,23.23
2017-10-13T02:32:09.790Z,10.10
2017-10-13T02:35:11.750Z,7.00
2017-10-13T02:38:13.775Z,7.57
2017-10-13T02:41:15.725Z,9.43
2017-10-13T02:44:17.646Z,8.20
2017-10-13T02:47:20.382Z,10.73
2017-10-13T02:50:22.329Z,12.00
2017-10-13T02:53:25.167Z,11.10
2017-10-13T02:56:27.222Z,10.13
2017-10-13T02:59:29.935Z,7.87
2017-10-13T03:02:31.876Z,5.40
2017-10-13T03:05:33.866Z,3.77
2017-10-13T03:08:36.590Z,4.20
2017-10-13T03:11:38.673Z,6.80
2017-10-13T03:14:40.661Z,5.13
2017-10-13T03:17:42.614Z,5.20
2017-10-13T03:20:44.642Z,3.40
2017-10-13T03:23:46.903Z,4.67
2017-10-13T03:26:49.815Z,7.07
2017-10-13T03:29:52.566Z,7.07
2017-10-13T03:32:54.616Z,4.40
2017-10-13T03:35:56.667Z,3.80
2017-10-13T03:38:58.660Z,3.30
2017-10-13T03:42:02.338Z,3.13
2017-10-13T03:45:04.266Z,3.20
2017-10-13T03:48:06.981Z,3.07
2017-10-13T03:51:09.792Z,2.83
2017-10-13T03:54:11.738Z,3.20
2017-10-13T03:57:13.701Z,2.67
2017-10-13T04:00:15.649Z,2.70
2017-10-13T04:03:17.665Z,2.47
2017-10-13T04:06:19.613Z,3.60
2017-10-13T04:09:22.343Z,2.83
2017-10-13T04:12:24.378Z,3.43
2017-10-13T04:15:26.320Z,3.37
2017-10-13T04:18:28.271Z,3.50
2017-10-13T04:21:30.194Z,3.50
2017-10-13T04:24:32.295Z,3.40
2017-10-13T04:27:35.202Z,3.43
2017-10-13T04:30:37.995Z,3.63
2017-10-13T04:33:39.942Z,3.63
2017-10-13T04:36:41.987Z,4.40
2017-10-13T04:39:44.809Z,3.50
2017-10-13T04:42:46.886Z,3.83
2017-10-13T04:45:48.820Z,4.43
2017-10-13T04:48:50.846Z,5.57
2017-10-13T04:51:52.828Z,10.80
2017-10-13T04:54:54.814Z,12.97
2017-10-13T04:57:56.784Z,6.97
2017-10-13T05:01:00.298Z,7.50
2017-10-13T05:04:03.087Z,8.13
2017-10-13T05:07:05.062Z,12.73
2017-10-13T05:10:07.798Z,10.03
2017-10-13T05:13:09.856Z,6.40
2017-10-13T05:16:11.784Z,11.50
2017-10-13T05:19:13.725Z,13.27
2017-10-13T05:22:16.516Z,6.60
2017-10-13T05:25:18.614Z,9.50
2017-10-13T05:28:21.417Z,10.77
2017-10-13T05:31:24.150Z,8.93
2017-10-13T05:34:26.302Z,6.50
2017-10-13T05:37:29.101Z,6.30
2017-10-13T05:40:31.047Z,7.57
2017-10-13T05:43:33.081Z,6.73
2017-10-13T05:46:35.049Z,8.37
2017-10-13T05:49:37.841Z,7.13
2017-10-13T05:52:39.849Z,7.53
2017-10-13T05:55:42.726Z,7.03
2017-10-13T05:58:44.648Z,7.30
2017-10-13T06:01:46.697Z,6.57
2017-10-13T06:04:48.726Z,7.40
2017-10-13T06:07:50.674Z,7.00
2017-10-13T06:10:53.399Z,6.47
2017-10-13T06:13:55.440Z,7.50
2017-10-13T06:16:57.476Z,7.67
2017-10-13T06:19:59.529Z,7.03
2017-10-13T06:23:02.337Z,7.27
2017-10-13T06:26:05.042Z,7.00
2017-10-13T06:29:07.753Z,7.57
2017-10-13T06:32:09.716Z,6.40
2017-10-13T06:35:12.505Z,7.57
2017-10-13T06:38:15.730Z,7.07
2017-10-13T06:41:18.437Z,7.37
2017-10-13T06:44:21.246Z,7.20
2017-10-13T06:47:23.190Z,7.80
2017-10-13T06:50:26.741Z,7.47
2017-10-13T06:53:29.633Z,8.13
2017-10-13T06:56:32.425Z,8.57
2017-10-13T06:59:34.365Z,9.23
2017-10-13T07:02:36.395Z,8.90
2017-10-13T07:05:39.102Z,8.20
2017-10-13T07:08:41.822Z,7.93
2017-10-13T07:11:43.782Z,8.27
2017-10-13T07:14:46.526Z,8.67
2017-10-13T07:17:48.580Z,8.30
2017-10-13T07:20:51.359Z,8.27
2017-10-13T07:23:53.299Z,8.10
2017-10-13T07:26:55.357Z,8.00
2017-10-13T07:29:57.313Z,8.40
2017-10-13T07:33:00.058Z,7.87
2017-10-13T07:36:02.038Z,8.20
2017-10-13T07:39:04.077Z,12.30
2017-10-13T07:42:06.189Z,12.13
2017-10-13T07:45:08.916Z,8.77
2017-10-13T07:48:10.867Z,8.67
2017-10-13T07:51:13.612Z,7.70
2017-10-13T07:54:15.665Z,9.80
2017-10-13T07:57:17.781Z,8.00
2017-10-13T08:00:19.728Z,8.67
2017-10-13T08:03:21.741Z,7.37
2017-10-13T08:06:23.675Z,7.77
2017-10-13T08:09:26.470Z,8.05
2017-10-13T08:12:29.173Z,9.17
2017-10-13T08:15:31.994Z,14.30
2017-10-13T08:18:35.066Z,13.02
2017-10-13T08:21:37.121Z,16.45
2017-10-13T08:24:39.057Z,9.02
2017-10-13T08:27:41.770Z,9.13
2017-10-13T08:30:44.480Z,8.65
2017-10-13T08:33:46.533Z,8.73
2017-10-13T08:36:49.238Z,8.85
2017-10-13T08:39:52.044Z,12.55
2017-10-13T08:42:54.760Z,8.18
2017-10-13T08:45:56.715Z,8.90
2017-10-13T08:48:59.518Z,9.48
2017-10-13T08:52:02.358Z,6.65
2017-10-13T08:55:04.302Z,6.62
2017-10-13T08:58:06.288Z,7.15
2017-10-13T09:01:08.290Z,6.97
2017-10-13T09:04:10.341Z,6.70
2017-10-13T09:07:12.298Z,7.15
2017-10-13T09:10:14.330Z,6.78
2017-10-13T09:13:17.156Z,6.32
2017-10-13T09:16:19.271Z,6.55
2017-10-13T09:19:21.382Z,5.43
2017-10-13T09:22:23.422Z,6.45
2017-10-13T09:25:26.238Z,6.93
2017-10-13T09:28:28.194Z,6.35
2017-10-13T09:31:30.889Z,6.45
2017-10-13T09:34:33.632Z,6.00
2017-10-13T09:37:35.726Z,6.32
2017-10-13T09:40:38.071Z,6.55
2017-10-13T09:43:40.952Z,6.05
2017-10-13T09:46:42.945Z,5.32
2017-10-13T09:49:44.905Z,5.93
2017-10-13T09:52:46.941Z,5.97
2017-10-13T09:55:48.925Z,5.53
2017-10-13T09:58:51.004Z,5.60
2017-10-13T10:01:53.698Z,4.90
2017-10-13T10:04:56.435Z,4.87
2017-10-13T10:07:58.474Z,6.10
2017-10-13T10:11:00.450Z,5.78
2017-10-13T10:14:03.282Z,5.47
2017-10-13T10:17:05.270Z,5.75
2017-10-13T10:20:07.241Z,6.10
2017-10-13T10:23:10.029Z,5.95
2017-10-13T10:26:11.950Z,4.62
2017-10-13T10:29:13.978Z,5.03
2017-10-13T10:32:15.911Z,4.80
2017-10-13T10:35:17.922Z,4.87
2017-10-13T10:38:19.961Z,4.43
2017-10-13T10:41:22.745Z,4.85
2017-10-13T10:44:24.768Z,4.43
2017-10-13T10:47:26.748Z,5.40
2017-10-13T10:50:28.766Z,4.22
2017-10-13T10:53:30.708Z,5.07
2017-10-13T10:56:32.654Z,4.35
2017-10-13T10:59:34.651Z,5.15
2017-10-13T11:02:37.450Z,4.68
2017-10-13T11:05:40.249Z,5.03
2017-10-13T11:08:42.195Z,6.03
2017-10-13T11:11:44.253Z,4.30
2017-10-13T11:14:46.230Z,4.62
2017-10-13T11:17:48.181Z,4.57
2017-10-13T11:20:50.905Z,4.25
2017-10-13T11:23:53.694Z,4.18
2017-10-13T11:26:56.405Z,4.60
2017-10-13T11:29:59.140Z,6.53
2017-10-13T11:33:01.186Z,4.20
2017-10-13T11:36:03.992Z,5.65
2017-10-13T11:39:05.968Z,7.25
2017-10-13T11:42:08.688Z,4.50
2017-10-13T11:45:10.668Z,5.82
2017-10-13T11:48:12.733Z,4.10
2017-10-13T11:51:15.449Z,4.68
2017-10-13T11:54:17.530Z,4.62
2017-10-13T11:57:20.326Z,4.40
2017-10-13T12:00:22.289Z,5.30
2017-10-13T12:03:24.302Z,7.07
2017-10-13T12:06:27.453Z,4.80
2017-10-13T12:09:29.686Z,4.60
2017-10-13T12:12:32.485Z,4.40
2017-10-13T12:15:35.291Z,3.35
2017-10-13T12:18:38.126Z,5.55
2017-10-13T12:21:40.106Z,4.78
2017-10-13T12:24:42.081Z,4.85
2017-10-13T12:27:44.013Z,5.40
2017-10-13T12:30:46.002Z,5.60
2017-10-13T12:33:47.993Z,5.07
2017-10-13T12:36:49.974Z,3.72
2017-10-13T12:39:51.913Z,4.72
2017-10-13T12:42:53.974Z,3.53
2017-10-13T12:45:56.143Z,4.97
2017-10-13T12:48:58.885Z,4.85
2017-10-13T12:52:00.837Z,4.45
2017-10-13T12:55:03.645Z,5.97
2017-10-13T12:58:05.606Z,5.12
2017-10-13T13:01:07.585Z,4.22
2017-10-13T13:04:09.782Z,4.30
2017-10-13T13:07:12.583Z,4.62
2017-10-13T13:10:15.697Z,4.65
2017-10-13T13:13:19.324Z,5.03
2017-10-13T13:16:22.149Z,4.78
2017-10-13T13:19:24.151Z,5.12
2017-10-13T13:22:26.198Z,5.03
2017-10-13T13:25:28.265Z,5.22
2017-10-13T13:28:31.093Z,5.12
2017-10-13T13:31:33.074Z,4.70
2017-10-13T13:34:35.058Z,5.10
2017-10-13T13:37:37.050Z,4.62
2017-10-13T13:40:38.993Z,4.00
2017-10-13T13:43:40.982Z,3.85
2017-10-13T13:46:42.910Z,3.65
2017-10-13T13:49:44.964Z,3.72
2017-10-13T13:52:47.761Z,4.25
2017-10-13T13:55:50.583Z,4.30
2017-10-13T13:58:53.459Z,5.72
2017-10-13T14:01:55.459Z,4.93
2017-10-13T14:04:58.269Z,3.90
2017-10-13T14:08:00.332Z,4.45
2017-10-13T14:11:03.076Z,5.12
2017-10-13T14:14:05.117Z,4.60
2017-10-13T14:17:07.422Z,3.97
2017-10-13T14:20:10.162Z,4.43
2017-10-13T14:23:12.124Z,4.75
2017-10-13T14:26:14.078Z,4.55
2017-10-13T14:29:17.805Z,4.15
2017-10-13T14:32:20.619Z,4.30
2017-10-13T14:35:22.574Z,3.95
2017-10-13T14:38:26.091Z,4.97
2017-10-13T14:41:28.814Z,4.65
2017-10-13T14:44:30.901Z,4.15
2017-10-13T14:47:32.875Z,4.18
2017-10-13T14:50:35.595Z,3.65
2017-10-13T14:53:37.762Z,4.55
2017-10-13T14:56:40.568Z,4.47
2017-10-13T14:59:43.385Z,4.45
2017-10-13T15:02:45.339Z,4.12
2017-10-13T15:05:48.770Z,5.35
2017-10-13T15:08:51.522Z,4.35
2017-10-13T15:11:53.537Z,4.25
2017-10-13T15:14:57.057Z,4.62
2017-10-13T15:17:59.898Z,4.62
2017-10-13T15:21:02.672Z,4.72
2017-10-13T15:24:05.400Z,5.68
2017-10-13T15:27:07.451Z,5.57
2017-10-13T15:30:09.449Z,4.78
2017-10-13T15:33:12.292Z,6.47
2017-10-13T15:36:14.248Z,5.55
2017-10-13T15:39:16.422Z,5.82
2017-10-13T15:42:20.023Z,5.70
2017-10-13T15:45:22.133Z,6.22
2017-10-13T15:48:24.103Z,6.45
2017-10-13T15:51:26.917Z,6.25
2017-10-13T15:54:28.868Z,5.78
2017-10-13T15:57:30.902Z,5.80
2017-10-13T16:00:32.914Z,5.65
2017-10-13T16:03:34.960Z,6.62
2017-10-13T16:06:36.936Z,6.18
2017-10-13T16:09:39.678Z,6.37
2017-10-13T16:12:41.728Z,6.57
2017-10-13T16:15:44.861Z,7.12
2017-10-13T16:18:46.793Z,7.05
2017-10-13T16:21:48.781Z,6.95
2017-10-13T16:24:50.774Z,7.85
2017-10-13T16:27:53.558Z,8.55
2017-10-13T16:30:55.578Z,8.25
2017-10-13T16:33:57.654Z,7.50
2017-10-13T16:36:59.902Z,7.20
2017-10-13T16:40:01.937Z,7.65
2017-10-13T16:43:03.891Z,7.97
2017-10-13T16:46:06.717Z,9.25
2017-10-13T16:49:08.672Z,9.00
2017-10-13T16:52:10.667Z,9.25
2017-10-13T16:55:13.478Z,9.52
2017-10-13T16:58:15.482Z,11.77
2017-10-13T17:01:17.423Z,14.38
2017-10-13T17:04:20.238Z,11.65
2017-10-13T17:07:23.723Z,13.52
2017-10-13T17:10:25.694Z,14.18
2017-10-13T17:13:27.757Z,17.62
2017-10-13T17:16:29.799Z,10.80
2017-10-13T17:19:31.737Z,10.23
2017-10-13T17:22:34.444Z,10.05
2017-10-13T17:25:36.366Z,9.82
2017-10-13T17:28:39.199Z,9.10
2017-10-13T17:31:41.146Z,9.27
2017-10-13T17:34:44.161Z,9.95
2017-10-13T17:37:46.973Z,10.07
2017-10-13T17:40:49.970Z,10.88
2017-10-13T17:43:51.952Z,10.98
2017-10-13T17:46:54.988Z,10.75
2017-10-13T17:49:56.949Z,10.85
2017-10-13T17:52:59.846Z,11.25
2017-10-13T17:56:01.826Z,11.20
2017-10-13T17:59:05.253Z,11.88
2017-10-13T18:02:07.979Z,12.75
2017-10-13T18:05:10.052Z,11.52
2017-10-13T18:08:12.102Z,13.85
2017-10-13T18:11:15.674Z,13.82
2017-10-13T18:14:17.838Z,14.65
2017-10-13T18:17:20.942Z,14.32
2017-10-13T18:20:22.991Z,14.38
2017-10-13T18:23:25.426Z,13.90
2017-10-13T18:26:28.334Z,14.40
2017-10-13T18:29:31.723Z,14.70
2017-10-13T18:32:33.686Z,14.68
2017-10-13T18:35:36.035Z,14.87
2017-10-13T18:38:38.846Z,13.98
2017-10-13T18:41:40.892Z,15.25
2017-10-13T18:44:43.617Z,16.08
2017-10-13T18:47:46.512Z,15.43
2017-10-13T18:50:49.207Z,30.33
2017-10-13T18:53:51.194Z,32.33
2017-10-13T18:56:54.933Z,29.40
2017-10-13T18:59:57.311Z,17.75
2017-10-13T19:03:00.133Z,16.77
2017-10-13T19:06:02.201Z,17.87
2017-10-13T19:09:04.906Z,17.70
2017-10-13T19:12:06.910Z,16.10
2017-10-13T19:15:08.868Z,16.17
2017-10-13T19:18:11.601Z,15.73
2017-10-13T19:21:13.541Z,15.18
2017-10-13T19:24:15.522Z,15.85
2017-10-13T19:27:17.485Z,14.55
2017-10-13T19:30:19.841Z,21.15
2017-10-13T19:33:21.794Z,15.32
2017-10-13T19:36:24.595Z,14.52
2017-10-13T19:39:27.427Z,17.10
2017-10-13T19:42:29.466Z,15.00
2017-10-13T19:45:31.464Z,20.62
2017-10-13T19:48:33.441Z,17.42
2017-10-13T19:51:35.422Z,15.90
2017-10-13T19:54:37.446Z,15.88
2017-10-13T19:57:39.434Z,20.02
2017-10-13T20:00:41.543Z,16.00
2017-10-13T20:03:43.628Z,17.10
2017-10-13T20:06:45.590Z,18.12
2017-10-13T20:09:48.362Z,17.77
2017-10-13T20:12:51.114Z,19.02
2017-10-13T20:15:53.160Z,17.83
2017-10-13T20:18:55.242Z,19.20
2017-10-13T20:21:58.040Z,19.52
2017-10-13T20:25:01.174Z,20.65
2017-10-13T20:28:03.145Z,21.75
2017-10-13T20:31:06.174Z,22.42
2017-10-13T20:34:08.148Z,20.70
2017-10-13T20:37:10.530Z,21.02
2017-10-13T20:40:12.621Z,20.70
2017-10-13T20:43:14.606Z,22.17
2017-10-13T20:46:16.662Z,22.23
2017-10-13T20:49:18.938Z,22.20
2017-10-13T20:52:21.598Z,20.83
2017-10-13T20:55:23.641Z,23.30
2017-10-13T20:58:26.338Z,24.80
2017-10-13T21:01:28.307Z,23.38
2017-10-13T21:04:30.242Z,23.65
2017-10-13T21:07:32.607Z,34.10
2017-10-13T21:10:35.314Z,28.87
2017-10-13T21:13:38.339Z,28.05
2017-10-13T21:16:40.292Z,34.90
2017-10-13T21:19:42.409Z,27.30
2017-10-13T21:22:44.364Z,28.90
2017-10-13T21:25:47.498Z,28.58
2017-10-13T21:28:49.478Z,24.08
2017-10-13T21:31:51.845Z,29.08
2017-10-13T21:34:53.801Z,22.23
2017-10-13T21:37:55.815Z,23.35
2017-10-13T21:40:58.634Z,23.05
2017-10-13T21:44:00.745Z,24.98
2017-10-13T21:47:03.158Z,23.00
2017-10-13T21:50:05.174Z,26.98
2017-10-13T21:53:07.187Z,25.27
2017-10-13T21:56:09.555Z,23.27
2017-10-13T21:59:12.266Z,21.95
2017-10-13T22:02:15.402Z,20.65
2017-10-13T22:05:17.346Z,20.52
2017-10-13T22:08:20.453Z,18.73
2017-10-13T22:11:22.516Z,17.73
2017-10-13T22:14:24.861Z,17.20
2017-10-13T22:17:26.811Z,19.35
2017-10-13T22:20:28.835Z,18.50
2017-10-13T22:23:30.765Z,17.75
2017-10-13T22:26:32.765Z,18.33
2017-10-13T22:29:35.594Z,17.48
2017-10-13T22:32:37.633Z,20.85
2017-10-13T22:35:39.686Z,18.37
2017-10-13T22:38:41.760Z,18.80
2017-10-13T22:41:43.874Z,20.45
2017-10-13T22:44:45.992Z,17.75
2017-10-13T22:47:48.015Z,19.30
2017-10-13T22:50:50.192Z,22.13
2017-10-13T22:53:52.974Z,21.58
2017-10-13T22:56:55.255Z,18.80
2017-10-13T22:59:57.277Z,17.52
2017-10-13T23:02:59.257Z,17.10
2017-10-13T23:06:01.198Z,21.62
2017-10-13T23:09:03.153Z,17.05
2017-10-13T23:12:05.092Z,19.70
2017-10-13T23:15:07.915Z,16.67
2017-10-13T23:18:09.841Z,20.12
2017-10-13T23:21:12.158Z,21.58
2017-10-13T23:24:14.990Z,18.02
2017-10-13T23:27:17.407Z,15.35
2017-10-13T23:30:19.364Z,14.85
2017-10-13T23:33:21.725Z,16.50
2017-10-13T23:36:25.167Z,14.80
2017-10-13T23:39:28.225Z,15.88
2017-10-13T23:42:30.266Z,13.25
2017-10-13T23:45:32.313Z,13.73
2017-10-13T23:48:34.277Z,12.30
2017-10-13T23:51:36.269Z,14.38
2017-10-13T23:54:38.310Z,13.75
2017-10-13T23:57:40.702Z,14.45
